sensor_id;sensor_type;location;lat;lon;timestamp;P1;durP1;ratioP1;P2;durP2;ratioP2
7080;SDS011;3582;51.506;11.948;2022-11-15T00:00:44;32.80;;;19.77;;
7080;SDS011;3582;51.506;11.948;2022-11-15T00:03:12;26.63;;;19.00;;
7080;SDS011;3582;51.506;11.948;2022-11-15T00:05:38;23.40;;;17.90;;
7080;SDS011;3582;51.506;11.948;2022-11-15T00:08:04;24.00;;;18.13;;
7080;SDS011;3582;51.506;11.948;2022-11-15T00:10:30;25.37;;;19.93;;
7080;SDS011;3582;51.506;11.948;2022-11-15T00:12:56;25.73;;;18.63;;
7080;SDS011;3582;51.506;11.948;2022-11-15T00:15:22;22.90;;;18.10;;
7080;SDS011;3582;51.506;11.948;2022-11-15T00:17:48;25.67;;;19.40;;
7080;SDS011;3582;51.506;11.948;2022-11-15T00:20:15;25.88;;;18.23;;
7080;SDS011;3582;51.506;11.948;2022-11-15T00:22:41;27.30;;;18.48;;
7080;SDS011;3582;51.506;11.948;2022-11-15T00:25:07;23.57;;;18.20;;
7080;SDS011;3582;51.506;11.948;2022-11-15T00:27:33;27.60;;;18.00;;
7080;SDS011;3582;51.506;11.948;2022-11-15T00:30:00;23.92;;;19.17;;
7080;SDS011;3582;51.506;11.948;2022-11-15T00:32:26;24.77;;;17.63;;
7080;SDS011;3582;51.506;11.948;2022-11-15T00:34:52;29.13;;;19.40;;
7080;SDS011;3582;51.506;11.948;2022-11-15T00:37:18;23.40;;;17.50;;
7080;SDS011;3582;51.506;11.948;2022-11-15T00:39:44;28.40;;;20.20;;
7080;SDS011;3582;51.506;11.948;2022-11-15T00:42:10;27.30;;;18.30;;
7080;SDS011;3582;51.506;11.948;2022-11-15T00:44:36;23.55;;;18.77;;
7080;SDS011;3582;51.506;11.948;2022-11-15T00:47:02;25.77;;;18.50;;
7080;SDS011;3582;51.506;11.948;2022-11-15T00:49:28;27.33;;;18.73;;
7080;SDS011;3582;51.506;11.948;2022-11-15T00:51:53;28.20;;;18.83;;
7080;SDS011;3582;51.506;11.948;2022-11-15T00:54:19;23.03;;;17.87;;
7080;SDS011;3582;51.506;11.948;2022-11-15T00:56:45;25.57;;;18.53;;
7080;SDS011;3582;51.506;11.948;2022-11-15T00:59:11;25.17;;;18.40;;
7080;SDS011;3582;51.506;11.948;2022-11-15T01:01:37;22.40;;;18.33;;
7080;SDS011;3582;51.506;11.948;2022-11-15T01:04:03;23.80;;;18.17;;
7080;SDS011;3582;51.506;11.948;2022-11-15T01:06:29;26.35;;;18.73;;
7080;SDS011;3582;51.506;11.948;2022-11-15T01:08:55;26.73;;;19.90;;
7080;SDS011;3582;51.506;11.948;2022-11-15T01:11:21;25.83;;;20.03;;
7080;SDS011;3582;51.506;11.948;2022-11-15T01:13:47;27.30;;;19.27;;
7080;SDS011;3582;51.506;11.948;2022-11-15T01:16:16;25.48;;;17.75;;
7080;SDS011;3582;51.506;11.948;2022-11-15T01:18:43;24.25;;;17.92;;
7080;SDS011;3582;51.506;11.948;2022-11-15T01:21:10;25.08;;;18.92;;
7080;SDS011;3582;51.506;11.948;2022-11-15T01:23:36;24.55;;;18.67;;
7080;SDS011;3582;51.506;11.948;2022-11-15T01:26:03;26.50;;;18.23;;
7080;SDS011;3582;51.506;11.948;2022-11-15T01:28:32;31.23;;;19.30;;
7080;SDS011;3582;51.506;11.948;2022-11-15T01:31:00;24.58;;;16.60;;
7080;SDS011;3582;51.506;11.948;2022-11-15T01:33:27;29.25;;;18.52;;
7080;SDS011;3582;51.506;11.948;2022-11-15T01:35:53;31.52;;;19.17;;
7080;SDS011;3582;51.506;11.948;2022-11-15T01:38:19;24.60;;;17.77;;
7080;SDS011;3582;51.506;11.948;2022-11-15T01:40:45;33.30;;;22.00;;
7080;SDS011;3582;51.506;11.948;2022-11-15T01:43:21;24.02;;;19.00;;
7080;SDS011;3582;51.506;11.948;2022-11-15T01:45:52;28.77;;;19.77;;
7080;SDS011;3582;51.506;11.948;2022-11-15T01:48:22;26.92;;;18.35;;
7080;SDS011;3582;51.506;11.948;2022-11-15T01:50:51;27.25;;;18.67;;
7080;SDS011;3582;51.506;11.948;2022-11-15T01:53:17;24.77;;;19.83;;
7080;SDS011;3582;51.506;11.948;2022-11-15T01:55:45;30.95;;;19.05;;
7080;SDS011;3582;51.506;11.948;2022-11-15T01:58:11;25.48;;;17.42;;
7080;SDS011;3582;51.506;11.948;2022-11-15T02:00:37;29.47;;;19.97;;
7080;SDS011;3582;51.506;11.948;2022-11-15T02:03:03;25.70;;;18.40;;
7080;SDS011;3582;51.506;11.948;2022-11-15T02:05:30;28.90;;;19.90;;
7080;SDS011;3582;51.506;11.948;2022-11-15T02:07:56;33.97;;;21.48;;
7080;SDS011;3582;51.506;11.948;2022-11-15T02:10:22;28.73;;;19.05;;
7080;SDS011;3582;51.506;11.948;2022-11-15T02:12:49;29.70;;;21.05;;
7080;SDS011;3582;51.506;11.948;2022-11-15T02:15:15;34.88;;;19.85;;
7080;SDS011;3582;51.506;11.948;2022-11-15T02:23:09;30.83;;;18.45;;
7080;SDS011;3582;51.506;11.948;2022-11-15T02:34:09;34.50;;;20.75;;
7080;SDS011;3582;51.506;11.948;2022-11-15T02:36:41;31.52;;;19.33;;
7080;SDS011;3582;51.506;11.948;2022-11-15T02:39:10;27.10;;;18.85;;
7080;SDS011;3582;51.506;11.948;2022-11-15T02:44:39;32.85;;;20.92;;
7080;SDS011;3582;51.506;11.948;2022-11-15T02:47:07;31.98;;;20.77;;
7080;SDS011;3582;51.506;11.948;2022-11-15T02:49:49;29.83;;;21.30;;
7080;SDS011;3582;51.506;11.948;2022-11-15T02:52:16;31.20;;;19.95;;
7080;SDS011;3582;51.506;11.948;2022-11-15T02:54:42;28.30;;;19.70;;
7080;SDS011;3582;51.506;11.948;2022-11-15T02:57:12;32.67;;;19.35;;
7080;SDS011;3582;51.506;11.948;2022-11-15T02:59:44;22.55;;;18.42;;
7080;SDS011;3582;51.506;11.948;2022-11-15T03:05:02;25.27;;;18.27;;
7080;SDS011;3582;51.506;11.948;2022-11-15T03:10:18;26.50;;;18.48;;
7080;SDS011;3582;51.506;11.948;2022-11-15T03:12:55;24.63;;;18.25;;
7080;SDS011;3582;51.506;11.948;2022-11-15T03:15:23;26.17;;;19.25;;
7080;SDS011;3582;51.506;11.948;2022-11-15T03:17:54;27.08;;;19.60;;
7080;SDS011;3582;51.506;11.948;2022-11-15T03:20:21;26.17;;;19.92;;
7080;SDS011;3582;51.506;11.948;2022-11-15T03:22:47;26.67;;;18.67;;
7080;SDS011;3582;51.506;11.948;2022-11-15T03:25:16;28.95;;;18.13;;
7080;SDS011;3582;51.506;11.948;2022-11-15T03:27:44;27.40;;;18.65;;
7080;SDS011;3582;51.506;11.948;2022-11-15T03:30:12;27.92;;;18.77;;
7080;SDS011;3582;51.506;11.948;2022-11-15T03:32:46;29.42;;;18.90;;
7080;SDS011;3582;51.506;11.948;2022-11-15T03:35:14;25.20;;;17.98;;
7080;SDS011;3582;51.506;11.948;2022-11-15T03:37:45;25.45;;;17.05;;
7080;SDS011;3582;51.506;11.948;2022-11-15T03:40:12;27.60;;;19.10;;
7080;SDS011;3582;51.506;11.948;2022-11-15T03:45:44;23.73;;;17.42;;
7080;SDS011;3582;51.506;11.948;2022-11-15T03:48:13;36.10;;;21.00;;
7080;SDS011;3582;51.506;11.948;2022-11-15T03:50:40;33.33;;;19.42;;
7080;SDS011;3582;51.506;11.948;2022-11-15T03:53:07;26.95;;;17.73;;
7080;SDS011;3582;51.506;11.948;2022-11-15T03:55:33;29.33;;;18.65;;
7080;SDS011;3582;51.506;11.948;2022-11-15T03:57:59;25.87;;;17.57;;
7080;SDS011;3582;51.506;11.948;2022-11-15T04:00:26;29.05;;;17.88;;
7080;SDS011;3582;51.506;11.948;2022-11-15T04:02:52;26.50;;;17.90;;
7080;SDS011;3582;51.506;11.948;2022-11-15T04:05:18;24.87;;;17.20;;
7080;SDS011;3582;51.506;11.948;2022-11-15T04:07:44;26.92;;;18.25;;
7080;SDS011;3582;51.506;11.948;2022-11-15T04:10:10;27.20;;;18.60;;
7080;SDS011;3582;51.506;11.948;2022-11-15T04:12:38;23.83;;;17.00;;
7080;SDS011;3582;51.506;11.948;2022-11-15T04:15:12;26.30;;;18.92;;
7080;SDS011;3582;51.506;11.948;2022-11-15T04:17:40;24.50;;;18.00;;
7080;SDS011;3582;51.506;11.948;2022-11-15T04:22:54;25.02;;;18.45;;
7080;SDS011;3582;51.506;11.948;2022-11-15T04:25:54;29.00;;;20.02;;
7080;SDS011;3582;51.506;11.948;2022-11-15T04:28:20;25.75;;;18.23;;
7080;SDS011;3582;51.506;11.948;2022-11-15T04:30:46;26.70;;;16.92;;
7080;SDS011;3582;51.506;11.948;2022-11-15T04:33:13;26.73;;;17.30;;
7080;SDS011;3582;51.506;11.948;2022-11-15T04:35:39;27.13;;;18.87;;
7080;SDS011;3582;51.506;11.948;2022-11-15T04:38:06;23.30;;;19.23;;
7080;SDS011;3582;51.506;11.948;2022-11-15T04:40:32;29.45;;;19.15;;
7080;SDS011;3582;51.506;11.948;2022-11-15T04:42:59;26.25;;;17.98;;
7080;SDS011;3582;51.506;11.948;2022-11-15T04:45:24;28.00;;;20.83;;
7080;SDS011;3582;51.506;11.948;2022-11-15T04:47:50;26.00;;;18.80;;
7080;SDS011;3582;51.506;11.948;2022-11-15T04:50:17;27.20;;;18.30;;
7080;SDS011;3582;51.506;11.948;2022-11-15T04:52:48;26.48;;;18.95;;
7080;SDS011;3582;51.506;11.948;2022-11-15T04:55:15;25.45;;;18.10;;
7080;SDS011;3582;51.506;11.948;2022-11-15T04:57:41;26.00;;;18.05;;
7080;SDS011;3582;51.506;11.948;2022-11-15T05:00:09;27.80;;;18.20;;
7080;SDS011;3582;51.506;11.948;2022-11-15T05:02:35;25.80;;;17.77;;
7080;SDS011;3582;51.506;11.948;2022-11-15T05:05:20;23.80;;;17.40;;
7080;SDS011;3582;51.506;11.948;2022-11-15T05:07:46;27.70;;;19.17;;
7080;SDS011;3582;51.506;11.948;2022-11-15T05:10:12;30.65;;;21.00;;
7080;SDS011;3582;51.506;11.948;2022-11-15T05:12:38;30.17;;;18.80;;
7080;SDS011;3582;51.506;11.948;2022-11-15T05:15:04;29.83;;;17.98;;
7080;SDS011;3582;51.506;11.948;2022-11-15T05:17:30;31.25;;;19.85;;
7080;SDS011;3582;51.506;11.948;2022-11-15T05:19:56;26.00;;;17.73;;
7080;SDS011;3582;51.506;11.948;2022-11-15T05:22:22;27.67;;;19.33;;
7080;SDS011;3582;51.506;11.948;2022-11-15T05:24:48;30.42;;;19.52;;
7080;SDS011;3582;51.506;11.948;2022-11-15T05:27:14;26.67;;;19.00;;
7080;SDS011;3582;51.506;11.948;2022-11-15T05:29:40;24.30;;;17.27;;
7080;SDS011;3582;51.506;11.948;2022-11-15T05:32:06;31.30;;;18.97;;
7080;SDS011;3582;51.506;11.948;2022-11-15T05:34:34;27.08;;;19.52;;
7080;SDS011;3582;51.506;11.948;2022-11-15T05:37:00;29.90;;;18.70;;
7080;SDS011;3582;51.506;11.948;2022-11-15T05:39:26;29.33;;;17.80;;
7080;SDS011;3582;51.506;11.948;2022-11-15T05:41:53;32.35;;;18.58;;
7080;SDS011;3582;51.506;11.948;2022-11-15T05:44:21;26.05;;;19.90;;
7080;SDS011;3582;51.506;11.948;2022-11-15T05:46:48;25.40;;;19.85;;
7080;SDS011;3582;51.506;11.948;2022-11-15T05:49:15;28.58;;;20.00;;
7080;SDS011;3582;51.506;11.948;2022-11-15T05:51:42;34.58;;;19.15;;
7080;SDS011;3582;51.506;11.948;2022-11-15T05:54:10;28.65;;;18.75;;
7080;SDS011;3582;51.506;11.948;2022-11-15T05:56:36;34.05;;;19.25;;
7080;SDS011;3582;51.506;11.948;2022-11-15T05:59:02;27.57;;;19.57;;
7080;SDS011;3582;51.506;11.948;2022-11-15T06:01:28;33.80;;;22.67;;
7080;SDS011;3582;51.506;11.948;2022-11-15T06:03:55;27.52;;;18.63;;
7080;SDS011;3582;51.506;11.948;2022-11-15T06:06:21;31.02;;;19.60;;
7080;SDS011;3582;51.506;11.948;2022-11-15T06:08:47;31.20;;;19.92;;
7080;SDS011;3582;51.506;11.948;2022-11-15T06:11:13;36.70;;;21.00;;
7080;SDS011;3582;51.506;11.948;2022-11-15T06:13:39;29.83;;;21.25;;
7080;SDS011;3582;51.506;11.948;2022-11-15T06:16:06;30.45;;;21.23;;
7080;SDS011;3582;51.506;11.948;2022-11-15T06:18:33;33.10;;;19.05;;
7080;SDS011;3582;51.506;11.948;2022-11-15T06:20:59;28.27;;;17.40;;
7080;SDS011;3582;51.506;11.948;2022-11-15T06:23:25;28.95;;;18.90;;
7080;SDS011;3582;51.506;11.948;2022-11-15T06:25:51;35.22;;;18.42;;
7080;SDS011;3582;51.506;11.948;2022-11-15T06:28:17;26.23;;;20.23;;
7080;SDS011;3582;51.506;11.948;2022-11-15T06:30:43;24.77;;;18.33;;
7080;SDS011;3582;51.506;11.948;2022-11-15T06:33:09;27.43;;;17.73;;
7080;SDS011;3582;51.506;11.948;2022-11-15T06:35:35;28.63;;;20.77;;
7080;SDS011;3582;51.506;11.948;2022-11-15T06:38:02;25.65;;;18.58;;
7080;SDS011;3582;51.506;11.948;2022-11-15T06:40:28;30.60;;;19.38;;
7080;SDS011;3582;51.506;11.948;2022-11-15T06:42:58;27.60;;;18.87;;
7080;SDS011;3582;51.506;11.948;2022-11-15T06:45:24;21.10;;;16.23;;
7080;SDS011;3582;51.506;11.948;2022-11-15T06:47:50;24.67;;;19.08;;
7080;SDS011;3582;51.506;11.948;2022-11-15T06:50:16;25.20;;;17.73;;
7080;SDS011;3582;51.506;11.948;2022-11-15T06:52:42;26.27;;;17.90;;
7080;SDS011;3582;51.506;11.948;2022-11-15T06:55:08;24.55;;;17.73;;
7080;SDS011;3582;51.506;11.948;2022-11-15T06:57:35;28.95;;;17.60;;
7080;SDS011;3582;51.506;11.948;2022-11-15T07:00:02;26.05;;;17.02;;
7080;SDS011;3582;51.506;11.948;2022-11-15T07:02:28;25.52;;;16.98;;
7080;SDS011;3582;51.506;11.948;2022-11-15T07:04:54;26.93;;;18.80;;
7080;SDS011;3582;51.506;11.948;2022-11-15T07:07:20;30.90;;;18.00;;
7080;SDS011;3582;51.506;11.948;2022-11-15T07:09:46;24.87;;;17.03;;
7080;SDS011;3582;51.506;11.948;2022-11-15T07:12:12;26.00;;;17.00;;
7080;SDS011;3582;51.506;11.948;2022-11-15T07:14:38;26.38;;;16.85;;
7080;SDS011;3582;51.506;11.948;2022-11-15T07:17:04;29.60;;;18.80;;
7080;SDS011;3582;51.506;11.948;2022-11-15T07:19:30;26.42;;;17.08;;
7080;SDS011;3582;51.506;11.948;2022-11-15T07:21:57;26.88;;;16.63;;
7080;SDS011;3582;51.506;11.948;2022-11-15T07:24:23;26.40;;;17.23;;
7080;SDS011;3582;51.506;11.948;2022-11-15T07:26:49;29.53;;;19.30;;
7080;SDS011;3582;51.506;11.948;2022-11-15T07:29:14;30.80;;;16.30;;
7080;SDS011;3582;51.506;11.948;2022-11-15T07:31:40;28.05;;;16.20;;
7080;SDS011;3582;51.506;11.948;2022-11-15T07:34:06;24.00;;;17.98;;
7080;SDS011;3582;51.506;11.948;2022-11-15T07:36:33;26.15;;;19.88;;
7080;SDS011;3582;51.506;11.948;2022-11-15T07:38:59;24.67;;;16.63;;
7080;SDS011;3582;51.506;11.948;2022-11-15T07:41:25;27.90;;;16.43;;
7080;SDS011;3582;51.506;11.948;2022-11-15T07:43:51;33.83;;;19.00;;
7080;SDS011;3582;51.506;11.948;2022-11-15T07:46:17;20.60;;;15.35;;
7080;SDS011;3582;51.506;11.948;2022-11-15T07:48:43;24.42;;;15.75;;
7080;SDS011;3582;51.506;11.948;2022-11-15T07:51:13;31.93;;;17.63;;
7080;SDS011;3582;51.506;11.948;2022-11-15T07:53:39;34.92;;;15.85;;
7080;SDS011;3582;51.506;11.948;2022-11-15T07:56:06;30.35;;;18.10;;
7080;SDS011;3582;51.506;11.948;2022-11-15T07:58:32;24.05;;;15.32;;
7080;SDS011;3582;51.506;11.948;2022-11-15T08:00:58;24.35;;;16.70;;
7080;SDS011;3582;51.506;11.948;2022-11-15T08:03:27;21.08;;;16.95;;
7080;SDS011;3582;51.506;11.948;2022-11-15T08:05:53;28.13;;;16.47;;
7080;SDS011;3582;51.506;11.948;2022-11-15T08:08:19;24.27;;;16.37;;
7080;SDS011;3582;51.506;11.948;2022-11-15T08:10:45;22.00;;;15.38;;
7080;SDS011;3582;51.506;11.948;2022-11-15T08:13:12;26.90;;;17.00;;
7080;SDS011;3582;51.506;11.948;2022-11-15T08:15:38;18.17;;;15.75;;
7080;SDS011;3582;51.506;11.948;2022-11-15T08:18:06;27.05;;;17.00;;
7080;SDS011;3582;51.506;11.948;2022-11-15T08:20:32;18.55;;;15.15;;
7080;SDS011;3582;51.506;11.948;2022-11-15T08:23:00;29.20;;;15.23;;
7080;SDS011;3582;51.506;11.948;2022-11-15T08:25:26;21.63;;;15.30;;
7080;SDS011;3582;51.506;11.948;2022-11-15T08:27:53;18.42;;;14.45;;
7080;SDS011;3582;51.506;11.948;2022-11-15T08:30:19;23.52;;;16.08;;
7080;SDS011;3582;51.506;11.948;2022-11-15T08:32:45;21.40;;;15.85;;
7080;SDS011;3582;51.506;11.948;2022-11-15T08:35:12;20.45;;;15.40;;
7080;SDS011;3582;51.506;11.948;2022-11-15T08:37:38;18.48;;;13.60;;
7080;SDS011;3582;51.506;11.948;2022-11-15T08:40:04;22.38;;;13.90;;
7080;SDS011;3582;51.506;11.948;2022-11-15T08:42:30;16.73;;;13.50;;
7080;SDS011;3582;51.506;11.948;2022-11-15T08:44:56;24.27;;;15.27;;
7080;SDS011;3582;51.506;11.948;2022-11-15T08:47:22;21.20;;;14.20;;
7080;SDS011;3582;51.506;11.948;2022-11-15T08:49:49;20.15;;;14.48;;
7080;SDS011;3582;51.506;11.948;2022-11-15T08:52:15;16.48;;;12.73;;
7080;SDS011;3582;51.506;11.948;2022-11-15T08:54:40;15.77;;;13.87;;
7080;SDS011;3582;51.506;11.948;2022-11-15T08:57:07;20.50;;;13.90;;
7080;SDS011;3582;51.506;11.948;2022-11-15T08:59:34;17.50;;;12.90;;
7080;SDS011;3582;51.506;11.948;2022-11-15T09:02:00;21.30;;;14.18;;
7080;SDS011;3582;51.506;11.948;2022-11-15T09:04:26;18.13;;;13.73;;
7080;SDS011;3582;51.506;11.948;2022-11-15T09:06:52;14.95;;;11.65;;
7080;SDS011;3582;51.506;11.948;2022-11-15T09:09:18;16.15;;;12.70;;
7080;SDS011;3582;51.506;11.948;2022-11-15T09:11:44;19.33;;;14.37;;
7080;SDS011;3582;51.506;11.948;2022-11-15T09:14:13;12.13;;;10.93;;
7080;SDS011;3582;51.506;11.948;2022-11-15T09:16:40;16.30;;;12.33;;
7080;SDS011;3582;51.506;11.948;2022-11-15T09:19:06;17.30;;;12.10;;
7080;SDS011;3582;51.506;11.948;2022-11-15T09:21:32;16.05;;;11.07;;
7080;SDS011;3582;51.506;11.948;2022-11-15T09:23:58;13.20;;;11.75;;
7080;SDS011;3582;51.506;11.948;2022-11-15T09:26:24;15.75;;;11.05;;
7080;SDS011;3582;51.506;11.948;2022-11-15T09:28:50;17.97;;;13.10;;
7080;SDS011;3582;51.506;11.948;2022-11-15T09:31:16;15.73;;;13.03;;
7080;SDS011;3582;51.506;11.948;2022-11-15T09:33:43;13.33;;;10.50;;
7080;SDS011;3582;51.506;11.948;2022-11-15T09:36:12;12.43;;;10.23;;
7080;SDS011;3582;51.506;11.948;2022-11-15T09:38:39;14.60;;;10.27;;
7080;SDS011;3582;51.506;11.948;2022-11-15T09:46:24;15.00;;;10.20;;
7080;SDS011;3582;51.506;11.948;2022-11-15T09:48:54;26.87;;;12.90;;
7080;SDS011;3582;51.506;11.948;2022-11-15T09:51:34;13.70;;;10.10;;
7080;SDS011;3582;51.506;11.948;2022-11-15T09:54:13;13.20;;;10.60;;
7080;SDS011;3582;51.506;11.948;2022-11-15T09:56:42;14.47;;;11.43;;
7080;SDS011;3582;51.506;11.948;2022-11-15T10:02:18;15.10;;;10.77;;
7080;SDS011;3582;51.506;11.948;2022-11-15T10:04:45;12.33;;;8.50;;
7080;SDS011;3582;51.506;11.948;2022-11-15T10:07:31;21.07;;;10.20;;
7080;SDS011;3582;51.506;11.948;2022-11-15T10:10:02;16.17;;;11.70;;
7080;SDS011;3582;51.506;11.948;2022-11-15T10:12:30;15.13;;;10.93;;
7080;SDS011;3582;51.506;11.948;2022-11-15T10:15:02;15.03;;;11.33;;
7080;SDS011;3582;51.506;11.948;2022-11-15T10:17:41;9.83;;;8.33;;
7080;SDS011;3582;51.506;11.948;2022-11-15T10:25:16;10.73;;;9.00;;
7080;SDS011;3582;51.506;11.948;2022-11-15T10:27:43;13.27;;;8.50;;
7080;SDS011;3582;51.506;11.948;2022-11-15T10:30:11;10.30;;;7.50;;
7080;SDS011;3582;51.506;11.948;2022-11-15T10:32:38;9.13;;;7.60;;
7080;SDS011;3582;51.506;11.948;2022-11-15T10:38:06;9.70;;;8.40;;
7080;SDS011;3582;51.506;11.948;2022-11-15T10:40:33;14.60;;;8.50;;
7080;SDS011;3582;51.506;11.948;2022-11-15T10:45:31;9.27;;;8.37;;
7080;SDS011;3582;51.506;11.948;2022-11-15T10:50:46;9.33;;;6.97;;
7080;SDS011;3582;51.506;11.948;2022-11-15T10:55:49;11.10;;;7.17;;
7080;SDS011;3582;51.506;11.948;2022-11-15T10:58:30;9.53;;;6.20;;
7080;SDS011;3582;51.506;11.948;2022-11-15T11:01:08;8.40;;;5.93;;
7080;SDS011;3582;51.506;11.948;2022-11-15T11:03:35;11.27;;;6.20;;
7080;SDS011;3582;51.506;11.948;2022-11-15T11:06:12;10.80;;;6.30;;
7080;SDS011;3582;51.506;11.948;2022-11-15T11:08:38;8.13;;;6.17;;
7080;SDS011;3582;51.506;11.948;2022-11-15T11:11:04;7.60;;;6.50;;
7080;SDS011;3582;51.506;11.948;2022-11-15T11:13:33;6.20;;;5.60;;
7080;SDS011;3582;51.506;11.948;2022-11-15T11:18:40;10.00;;;6.83;;
7080;SDS011;3582;51.506;11.948;2022-11-15T11:21:10;14.33;;;7.43;;
7080;SDS011;3582;51.506;11.948;2022-11-15T11:23:44;11.20;;;7.50;;
7080;SDS011;3582;51.506;11.948;2022-11-15T11:29:04;7.00;;;6.30;;
7080;SDS011;3582;51.506;11.948;2022-11-15T11:38:55;7.40;;;5.73;;
7080;SDS011;3582;51.506;11.948;2022-11-15T11:44:14;8.97;;;6.90;;
7080;SDS011;3582;51.506;11.948;2022-11-15T11:46:46;7.53;;;5.97;;
7080;SDS011;3582;51.506;11.948;2022-11-15T11:54:38;8.00;;;7.20;;
7080;SDS011;3582;51.506;11.948;2022-11-15T11:57:09;7.63;;;6.77;;
7080;SDS011;3582;51.506;11.948;2022-11-15T11:59:54;6.67;;;6.07;;
7080;SDS011;3582;51.506;11.948;2022-11-15T12:02:27;8.70;;;6.47;;
7080;SDS011;3582;51.506;11.948;2022-11-15T12:04:57;8.90;;;6.10;;
7080;SDS011;3582;51.506;11.948;2022-11-15T12:07:28;7.17;;;6.47;;
7080;SDS011;3582;51.506;11.948;2022-11-15T12:09:59;10.40;;;5.30;;
7080;SDS011;3582;51.506;11.948;2022-11-15T12:14:57;7.13;;;5.90;;
7080;SDS011;3582;51.506;11.948;2022-11-15T12:17:28;7.00;;;5.87;;
7080;SDS011;3582;51.506;11.948;2022-11-15T12:19:57;7.80;;;5.60;;
7080;SDS011;3582;51.506;11.948;2022-11-15T12:22:27;6.23;;;4.87;;
7080;SDS011;3582;51.506;11.948;2022-11-15T12:24:57;6.87;;;5.17;;
7080;SDS011;3582;51.506;11.948;2022-11-15T12:29:59;5.90;;;5.37;;
7080;SDS011;3582;51.506;11.948;2022-11-15T12:32:28;8.90;;;4.87;;
7080;SDS011;3582;51.506;11.948;2022-11-15T12:34:56;8.03;;;5.87;;
7080;SDS011;3582;51.506;11.948;2022-11-15T12:40:19;8.17;;;6.47;;
7080;SDS011;3582;51.506;11.948;2022-11-15T12:45:36;7.00;;;4.60;;
7080;SDS011;3582;51.506;11.948;2022-11-15T13:01:14;7.47;;;5.03;;
7080;SDS011;3582;51.506;11.948;2022-11-15T13:06:54;4.67;;;4.27;;
7080;SDS011;3582;51.506;11.948;2022-11-15T13:20:01;5.27;;;4.80;;
7080;SDS011;3582;51.506;11.948;2022-11-15T13:22:32;5.70;;;4.83;;
7080;SDS011;3582;51.506;11.948;2022-11-15T13:28:00;6.50;;;4.87;;
7080;SDS011;3582;51.506;11.948;2022-11-15T13:30:27;7.13;;;4.37;;
7080;SDS011;3582;51.506;11.948;2022-11-15T13:32:54;3.33;;;3.13;;
7080;SDS011;3582;51.506;11.948;2022-11-15T13:35:21;4.43;;;4.10;;
7080;SDS011;3582;51.506;11.948;2022-11-15T13:37:48;6.57;;;3.87;;
7080;SDS011;3582;51.506;11.948;2022-11-15T13:40:17;5.43;;;4.23;;
7080;SDS011;3582;51.506;11.948;2022-11-15T13:42:44;4.20;;;3.77;;
7080;SDS011;3582;51.506;11.948;2022-11-15T13:45:13;4.00;;;3.70;;
7080;SDS011;3582;51.506;11.948;2022-11-15T13:47:39;4.17;;;3.87;;
7080;SDS011;3582;51.506;11.948;2022-11-15T13:50:05;3.57;;;3.30;;
7080;SDS011;3582;51.506;11.948;2022-11-15T13:52:33;4.10;;;3.77;;
7080;SDS011;3582;51.506;11.948;2022-11-15T14:00:00;5.80;;;4.70;;
7080;SDS011;3582;51.506;11.948;2022-11-15T14:02:28;17.10;;;5.20;;
7080;SDS011;3582;51.506;11.948;2022-11-15T14:04:56;6.83;;;5.33;;
7080;SDS011;3582;51.506;11.948;2022-11-15T14:07:24;8.53;;;4.93;;
7080;SDS011;3582;51.506;11.948;2022-11-15T14:09:51;5.73;;;5.23;;
7080;SDS011;3582;51.506;11.948;2022-11-15T14:12:27;8.77;;;5.00;;
7080;SDS011;3582;51.506;11.948;2022-11-15T14:14:54;8.53;;;4.17;;
7080;SDS011;3582;51.506;11.948;2022-11-15T14:17:21;11.10;;;5.53;;
7080;SDS011;3582;51.506;11.948;2022-11-15T14:19:58;11.87;;;5.90;;
7080;SDS011;3582;51.506;11.948;2022-11-15T14:22:25;13.40;;;8.47;;
7080;SDS011;3582;51.506;11.948;2022-11-15T14:27:31;14.03;;;7.17;;
7080;SDS011;3582;51.506;11.948;2022-11-15T14:29:57;27.33;;;7.53;;
7080;SDS011;3582;51.506;11.948;2022-11-15T14:32:25;7.77;;;6.40;;
7080;SDS011;3582;51.506;11.948;2022-11-15T14:34:55;8.13;;;6.27;;
7080;SDS011;3582;51.506;11.948;2022-11-15T14:37:29;7.50;;;5.23;;
7080;SDS011;3582;51.506;11.948;2022-11-15T14:39:59;13.50;;;5.87;;
7080;SDS011;3582;51.506;11.948;2022-11-15T14:42:26;10.77;;;7.97;;
7080;SDS011;3582;51.506;11.948;2022-11-15T14:44:52;12.00;;;8.00;;
7080;SDS011;3582;51.506;11.948;2022-11-15T14:47:18;15.87;;;8.03;;
7080;SDS011;3582;51.506;11.948;2022-11-15T14:49:44;8.30;;;6.50;;
7080;SDS011;3582;51.506;11.948;2022-11-15T14:52:23;9.07;;;6.77;;
7080;SDS011;3582;51.506;11.948;2022-11-15T14:54:50;8.07;;;5.97;;
7080;SDS011;3582;51.506;11.948;2022-11-15T14:57:16;7.83;;;6.53;;
7080;SDS011;3582;51.506;11.948;2022-11-15T14:59:42;10.50;;;6.97;;
7080;SDS011;3582;51.506;11.948;2022-11-15T15:02:11;13.73;;;7.33;;
7080;SDS011;3582;51.506;11.948;2022-11-15T15:04:39;9.00;;;5.80;;
7080;SDS011;3582;51.506;11.948;2022-11-15T15:07:05;12.43;;;8.20;;
7080;SDS011;3582;51.506;11.948;2022-11-15T15:09:31;18.93;;;7.27;;
7080;SDS011;3582;51.506;11.948;2022-11-15T15:11:57;8.70;;;7.73;;
7080;SDS011;3582;51.506;11.948;2022-11-15T15:14:23;12.77;;;7.93;;
7080;SDS011;3582;51.506;11.948;2022-11-15T15:16:49;23.60;;;8.27;;
7080;SDS011;3582;51.506;11.948;2022-11-15T15:19:15;15.70;;;9.27;;
7080;SDS011;3582;51.506;11.948;2022-11-15T15:21:41;12.50;;;8.03;;
7080;SDS011;3582;51.506;11.948;2022-11-15T15:24:08;18.13;;;10.80;;
7080;SDS011;3582;51.506;11.948;2022-11-15T15:26:39;13.80;;;9.90;;
7080;SDS011;3582;51.506;11.948;2022-11-15T15:29:05;12.37;;;10.13;;
7080;SDS011;3582;51.506;11.948;2022-11-15T15:31:33;22.53;;;10.70;;
7080;SDS011;3582;51.506;11.948;2022-11-15T15:33:59;20.83;;;11.87;;
7080;SDS011;3582;51.506;11.948;2022-11-15T15:36:25;15.93;;;10.97;;
7080;SDS011;3582;51.506;11.948;2022-11-15T15:38:51;21.97;;;15.20;;
7080;SDS011;3582;51.506;11.948;2022-11-15T15:41:17;15.00;;;10.37;;
7080;SDS011;3582;51.506;11.948;2022-11-15T15:43:43;15.57;;;11.00;;
7080;SDS011;3582;51.506;11.948;2022-11-15T15:46:11;16.27;;;11.60;;
7080;SDS011;3582;51.506;11.948;2022-11-15T15:48:37;17.77;;;11.13;;
7080;SDS011;3582;51.506;11.948;2022-11-15T15:51:04;13.50;;;10.70;;
7080;SDS011;3582;51.506;11.948;2022-11-15T15:53:30;13.68;;;9.70;;
7080;SDS011;3582;51.506;11.948;2022-11-15T15:55:56;13.80;;;10.37;;
7080;SDS011;3582;51.506;11.948;2022-11-15T15:58:22;11.43;;;10.10;;
7080;SDS011;3582;51.506;11.948;2022-11-15T16:00:48;18.53;;;10.20;;
7080;SDS011;3582;51.506;11.948;2022-11-15T16:03:14;19.43;;;13.20;;
7080;SDS011;3582;51.506;11.948;2022-11-15T16:05:40;16.43;;;11.10;;
7080;SDS011;3582;51.506;11.948;2022-11-15T16:08:09;18.80;;;11.43;;
7080;SDS011;3582;51.506;11.948;2022-11-15T16:10:38;23.45;;;11.68;;
7080;SDS011;3582;51.506;11.948;2022-11-15T16:13:04;15.10;;;11.63;;
7080;SDS011;3582;51.506;11.948;2022-11-15T16:15:30;18.15;;;13.13;;
7080;SDS011;3582;51.506;11.948;2022-11-15T16:17:57;18.35;;;12.88;;
7080;SDS011;3582;51.506;11.948;2022-11-15T16:20:28;17.88;;;12.27;;
7080;SDS011;3582;51.506;11.948;2022-11-15T16:22:54;18.30;;;13.27;;
7080;SDS011;3582;51.506;11.948;2022-11-15T16:25:20;55.50;;;40.43;;
7080;SDS011;3582;51.506;11.948;2022-11-15T16:27:46;24.80;;;16.90;;
7080;SDS011;3582;51.506;11.948;2022-11-15T16:30:16;19.30;;;13.23;;
7080;SDS011;3582;51.506;11.948;2022-11-15T16:32:42;18.48;;;10.80;;
7080;SDS011;3582;51.506;11.948;2022-11-15T16:35:12;16.17;;;11.33;;
7080;SDS011;3582;51.506;11.948;2022-11-15T16:37:38;12.60;;;10.98;;
7080;SDS011;3582;51.506;11.948;2022-11-15T16:40:10;15.25;;;10.15;;
7080;SDS011;3582;51.506;11.948;2022-11-15T16:42:41;15.00;;;11.20;;
7080;SDS011;3582;51.506;11.948;2022-11-15T16:45:08;16.13;;;10.60;;